Time;durP1;ratioP1;P1;durP2;ratioP2;P2;SDS_P1;SDS_P2;PMS_P1;PMS_P2;Temp;Humidity;BMP_temperature;BMP_pressure;BME280_temperature;BME280_humidity;BME280_pressure;Samples;Min_cycle;Max_cycle;Signal;HPM_P1;HPM_P2
2023/07/24 00:00:59;;;;;;;12.60;8.90;;;;;;;;;;5089728;28;20107;-75
2023/07/24 00:03:24;;;;;;;10.15;9.07;;;;;;;;;;5093091;28;20023;-76
2023/07/24 00:05:49;;;;;;;10.02;9.02;;;;;;;;;;5098142;28;20027;-76
2023/07/24 00:08:15;;;;;;;11.20;9.55;;;;;;;;;;5095518;28;20032;-76
2023/07/24 00:10:40;;;;;;;10.65;9.45;;;;;;;;;;5099171;28;20015;-76
2023/07/24 00:13:05;;;;;;;21.23;9.75;;;;;;;;;;5097843;28;20032;-76
2023/07/24 00:15:31;;;;;;;13.27;9.35;;;;;;;;;;5090676;28;20032;-76
2023/07/24 00:17:56;;;;;;;10.70;9.60;;;;;;;;;;5089477;28;20452;-76
2023/07/24 00:20:21;;;;;;;10.23;9.23;;;;;;;;;;5097923;28;20490;-75
2023/07/24 00:22:47;;;;;;;10.60;8.90;;;;;;;;;;5089655;28;21597;-76
2023/07/24 00:25:12;;;;;;;9.88;8.23;;;;;;;;;;5089133;28;20051;-76
2023/07/24 00:27:37;;;;;;;9.82;8.82;;;;;;;;;;5095730;28;20447;-77
2023/07/24 00:30:03;;;;;;;10.93;9.73;;;;;;;;;;5096505;28;20049;-77
2023/07/24 00:32:28;;;;;;;11.73;9.10;;;;;;;;;;5084960;28;20030;-77
2023/07/24 00:34:53;;;;;;;10.57;9.23;;;;;;;;;;5097799;28;20031;-76
2023/07/24 00:37:19;;;;;;;9.88;8.88;;;;;;;;;;5098401;28;20024;-77
2023/07/24 00:39:44;;;;;;;10.48;9.48;;;;;;;;;;5095597;28;20028;-77
2023/07/24 00:42:09;;;;;;;13.30;9.85;;;;;;;;;;5096769;28;20086;-76
2023/07/24 00:44:36;;;;;;;10.95;9.48;;;;;;;;;;5093107;28;20056;-77
2023/07/24 00:47:01;;;;;;;10.20;8.85;;;;;;;;;;5083143;28;20043;-76
2023/07/24 00:49:27;;;;;;;10.75;9.65;;;;;;;;;;5099755;28;20035;-77
2023/07/24 00:51:52;;;;;;;10.07;9.07;;;;;;;;;;5103613;28;20015;-76
2023/07/24 00:54:18;;;;;;;11.27;9.85;;;;;;;;;;5103166;28;20032;-75
2023/07/24 00:56:44;;;;;;;11.93;10.55;;;;;;;;;;5102670;28;20026;-76
2023/07/24 00:59:10;;;;;;;12.55;9.10;;;;;;;;;;5099770;28;20039;-76
2023/07/24 01:01:36;;;;;;;10.05;9.02;;;;;;;;;;5097346;28;20024;-76
2023/07/24 01:04:03;;;;;;;10.98;9.20;;;;;;;;;;5091192;27;20426;-77
2023/07/24 01:06:28;;;;;;;11.18;10.07;;;;;;;;;;5089580;27;20384;-74
2023/07/24 01:08:54;;;;;;;11.65;9.25;;;;;;;;;;5101666;27;20027;-75
2023/07/24 01:11:20;;;;;;;11.27;9.52;;;;;;;;;;5084294;28;20024;-75
2023/07/24 01:13:57;;;;;;;13.95;9.35;;;;;;;;;;5085530;28;20020;-75
2023/07/24 01:16:23;;;;;;;11.98;8.75;;;;;;;;;;5102549;27;20032;-76
2023/07/24 01:18:51;;;;;;;15.32;8.48;;;;;;;;;;5082758;28;20084;-75
2023/07/24 01:21:20;;;;;;;11.93;9.15;;;;;;;;;;5095718;28;20069;-74
2023/07/24 01:23:50;;;;;;;13.88;9.15;;;;;;;;;;5093472;28;20055;-75
2023/07/24 01:26:16;;;;;;;10.77;9.70;;;;;;;;;;5100196;28;20028;-76
2023/07/24 01:28:41;;;;;;;10.63;9.10;;;;;;;;;;5091960;28;20049;-75
2023/07/24 01:31:07;;;;;;;10.07;8.73;;;;;;;;;;5099004;28;20510;-76
2023/07/24 01:33:35;;;;;;;10.38;9.27;;;;;;;;;;5094531;28;20091;-75
2023/07/24 01:36:01;;;;;;;14.10;9.52;;;;;;;;;;5097752;28;20117;-75
2023/07/24 01:38:27;;;;;;;10.45;8.65;;;;;;;;;;5098393;28;20056;-74
2023/07/24 01:40:53;;;;;;;10.27;9.15;;;;;;;;;;5092202;28;20040;-74
2023/07/24 01:43:18;;;;;;;14.60;9.75;;;;;;;;;;5102070;28;20103;-74
2023/07/24 01:45:43;;;;;;;10.55;9.55;;;;;;;;;;5099614;28;20454;-75
2023/07/24 01:48:09;;;;;;;12.68;9.13;;;;;;;;;;5094094;28;20070;-75
2023/07/24 01:50:34;;;;;;;10.57;8.85;;;;;;;;;;5094082;28;20019;-78
2023/07/24 01:53:00;;;;;;;9.77;8.77;;;;;;;;;;5098944;28;20027;-75
2023/07/24 01:55:25;;;;;;;10.23;8.52;;;;;;;;;;5089789;28;20020;-76
2023/07/24 01:57:50;;;;;;;11.68;9.68;;;;;;;;;;5096538;28;20085;-75
2023/07/24 02:00:16;;;;;;;9.75;8.75;;;;;;;;;;5102333;28;20023;-75
2023/07/24 02:02:41;;;;;;;10.82;9.68;;;;;;;;;;5100095;28;20430;-75
2023/07/24 02:05:07;;;;;;;13.38;9.18;;;;;;;;;;5102467;28;20107;-75
2023/07/24 02:07:32;;;;;;;11.43;8.35;;;;;;;;;;5097645;28;20142;-75
2023/07/24 02:09:57;;;;;;;10.15;8.68;;;;;;;;;;5091273;28;20055;-76
2023/07/24 02:12:23;;;;;;;11.02;8.60;;;;;;;;;;5100624;27;20135;-75
2023/07/24 02:14:49;;;;;;;12.68;8.85;;;;;;;;;;5101691;28;20062;-76
2023/07/24 02:17:15;;;;;;;11.95;8.88;;;;;;;;;;5087195;28;20024;-75
2023/07/24 02:19:40;;;;;;;11.02;9.82;;;;;;;;;;5081870;28;20103;-74
2023/07/24 02:22:06;;;;;;;10.57;9.48;;;;;;;;;;5099708;28;20028;-75
2023/07/24 02:24:31;;;;;;;12.43;9.10;;;;;;;;;;5084933;28;20035;-76
2023/07/24 02:26:56;;;;;;;11.23;8.98;;;;;;;;;;5100413;28;20035;-75
2023/07/24 02:29:22;;;;;;;11.50;9.52;;;;;;;;;;5097415;28;20115;-76
2023/07/24 02:31:47;;;;;;;10.27;8.77;;;;;;;;;;5096108;28;20034;-77
2023/07/24 02:34:13;;;;;;;12.65;9.68;;;;;;;;;;5093047;28;20422;-76
2023/07/24 02:36:39;;;;;;;17.27;9.73;;;;;;;;;;5099001;28;20034;-76
2023/07/24 02:39:04;;;;;;;12.25;9.38;;;;;;;;;;5098270;27;20126;-75
2023/07/24 02:41:29;;;;;;;11.98;9.35;;;;;;;;;;5089558;28;20031;-74
2023/07/24 02:43:55;;;;;;;10.13;8.98;;;;;;;;;;5099992;28;20023;-75
2023/07/24 02:46:20;;;;;;;10.45;9.20;;;;;;;;;;5103444;28;20460;-74
2023/07/24 02:48:45;;;;;;;11.70;8.50;;;;;;;;;;5098374;28;20067;-74
2023/07/24 02:51:12;;;;;;;13.98;10.13;;;;;;;;;;5097028;28;20173;-76
2023/07/24 02:53:37;;;;;;;13.57;9.57;;;;;;;;;;5078747;28;20024;-74
2023/07/24 02:56:02;;;;;;;10.45;8.95;;;;;;;;;;5080700;28;20038;-74
2023/07/24 02:58:28;;;;;;;12.38;9.88;;;;;;;;;;5092471;28;20047;-75
2023/07/24 03:00:53;;;;;;;12.10;10.07;;;;;;;;;;5097268;28;20035;-75
2023/07/24 03:03:19;;;;;;;10.70;8.77;;;;;;;;;;5100073;27;20050;-75
2023/07/24 03:05:44;;;;;;;10.63;9.52;;;;;;;;;;5099518;28;20023;-75
2023/07/24 03:08:09;;;;;;;14.70;10.23;;;;;;;;;;5094112;28;20035;-75
2023/07/24 03:10:35;;;;;;;12.30;9.63;;;;;;;;;;5082037;28;20032;-74
2023/07/24 03:13:00;;;;;;;12.38;10.15;;;;;;;;;;5085129;28;20032;-74
2023/07/24 03:15:25;;;;;;;12.65;9.35;;;;;;;;;;5100705;28;20434;-75
2023/07/24 03:17:51;;;;;;;10.88;9.13;;;;;;;;;;5097414;28;20032;-75
2023/07/24 03:20:17;;;;;;;10.18;9.07;;;;;;;;;;5100129;28;20020;-75
2023/07/24 03:22:43;;;;;;;10.88;9.55;;;;;;;;;;5095600;28;20095;-76
2023/07/24 03:25:08;;;;;;;13.30;9.65;;;;;;;;;;5087944;28;20166;-76
2023/07/24 03:27:34;;;;;;;10.73;8.60;;;;;;;;;;5087282;28;20043;-74
2023/07/24 03:29:59;;;;;;;11.90;9.65;;;;;;;;;;5095188;27;20446;-76
2023/07/24 03:32:24;;;;;;;11.85;9.60;;;;;;;;;;5097654;28;20024;-76
2023/07/24 03:34:50;;;;;;;11.32;9.32;;;;;;;;;;5098531;28;20016;-76
2023/07/24 03:37:15;;;;;;;11.93;9.48;;;;;;;;;;5099378;28;20019;-75
2023/07/24 03:39:40;;;;;;;12.02;9.52;;;;;;;;;;5097482;28;20062;-74
2023/07/24 03:42:06;;;;;;;12.15;9.05;;;;;;;;;;5101247;27;20060;-74
2023/07/24 03:44:31;;;;;;;11.95;9.85;;;;;;;;;;5082084;28;20031;-75
2023/07/24 03:46:56;;;;;;;11.10;9.13;;;;;;;;;;5083323;28;20020;-75
2023/07/24 03:49:22;;;;;;;14.63;10.20;;;;;;;;;;5096348;28;20038;-75
2023/07/24 03:51:48;;;;;;;14.18;9.23;;;;;;;;;;5099488;28;20031;-75
2023/07/24 03:54:13;;;;;;;10.40;9.30;;;;;;;;;;5086924;28;20048;-75
2023/07/24 03:56:38;;;;;;;12.07;9.35;;;;;;;;;;5097527;28;20023;-76
2023/07/24 03:59:05;;;;;;;10.18;9.05;;;;;;;;;;5087308;28;20027;-75
2023/07/24 04:01:30;;;;;;;13.80;10.05;;;;;;;;;;5093917;28;20015;-75
2023/07/24 04:03:55;;;;;;;12.63;9.98;;;;;;;;;;5099779;28;20032;-75
2023/07/24 04:06:21;;;;;;;11.73;9.77;;;;;;;;;;5097988;28;20015;-75
2023/07/24 04:08:46;;;;;;;12.10;10.05;;;;;;;;;;5099278;28;20046;-76
2023/07/24 04:11:11;;;;;;;10.82;9.57;;;;;;;;;;5096847;28;20446;-74
2023/07/24 04:13:37;;;;;;;14.40;10.90;;;;;;;;;;5099192;27;20023;-75
2023/07/24 04:16:02;;;;;;;13.15;10.40;;;;;;;;;;5092960;28;20103;-74
2023/07/24 04:18:27;;;;;;;11.75;10.55;;;;;;;;;;5087016;28;20099;-75
2023/07/24 04:20:53;;;;;;;13.65;10.95;;;;;;;;;;5080294;28;20062;-74
2023/07/24 04:23:18;;;;;;;12.13;10.93;;;;;;;;;;5086293;28;20011;-76
2023/07/24 04:25:43;;;;;;;14.15;10.20;;;;;;;;;;5082314;28;20039;-75
2023/07/24 04:28:09;;;;;;;12.10;10.95;;;;;;;;;;5094376;28;20036;-74
2023/07/24 04:30:34;;;;;;;11.70;10.48;;;;;;;;;;5100195;28;20143;-74
2023/07/24 04:32:59;;;;;;;12.13;11.02;;;;;;;;;;5084912;28;20327;-74
2023/07/24 04:35:26;;;;;;;13.63;11.60;;;;;;;;;;5083439;28;20028;-75
2023/07/24 04:37:51;;;;;;;15.57;10.93;;;;;;;;;;5081165;28;20077;-75
2023/07/24 04:40:18;;;;;;;12.73;11.52;;;;;;;;;;5080610;28;20051;-75
2023/07/24 04:42:43;;;;;;;13.43;11.88;;;;;;;;;;5081297;28;20024;-75
2023/07/24 04:45:09;;;;;;;13.43;12.07;;;;;;;;;;5081437;28;20024;-76
2023/07/24 04:47:36;;;;;;;11.73;10.57;;;;;;;;;;5084628;28;20026;-74
2023/07/24 04:50:02;;;;;;;12.50;11.18;;;;;;;;;;5083988;28;20031;-74
2023/07/24 04:52:27;;;;;;;14.27;11.23;;;;;;;;;;5082841;28;20113;-74
2023/07/24 04:54:52;;;;;;;11.75;9.95;;;;;;;;;;5098723;28;20118;-75
2023/07/24 04:57:18;;;;;;;12.25;10.95;;;;;;;;;;5095283;28;20082;-75
2023/07/24 04:59:43;;;;;;;12.07;10.38;;;;;;;;;;5086765;28;20077;-74
2023/07/24 05:02:09;;;;;;;11.75;10.57;;;;;;;;;;5084618;28;20438;-74
2023/07/24 05:04:34;;;;;;;14.50;11.10;;;;;;;;;;5084350;28;20031;-75
2023/07/24 05:06:59;;;;;;;13.43;11.85;;;;;;;;;;5091247;28;20015;-74
2023/07/24 05:09:25;;;;;;;14.32;11.90;;;;;;;;;;5082304;28;20027;-75
2023/07/24 05:11:50;;;;;;;13.18;11.05;;;;;;;;;;5085049;28;20106;-75
2023/07/24 05:14:15;;;;;;;14.45;12.48;;;;;;;;;;5082844;28;20026;-73
2023/07/24 05:16:41;;;;;;;12.32;11.10;;;;;;;;;;5084246;28;20042;-72
2023/07/24 05:19:06;;;;;;;12.68;11.48;;;;;;;;;;5079981;28;20034;-72
2023/07/24 05:21:31;;;;;;;11.20;10.10;;;;;;;;;;5080588;28;20031;-73
2023/07/24 05:23:57;;;;;;;12.02;10.68;;;;;;;;;;5098406;28;20081;-72
2023/07/24 05:26:22;;;;;;;11.77;10.45;;;;;;;;;;5084985;28;20027;-73
2023/07/24 05:28:47;;;;;;;12.93;11.57;;;;;;;;;;5095881;28;20050;-73
2023/07/24 05:31:13;;;;;;;12.35;10.68;;;;;;;;;;5094731;28;20608;-73
2023/07/24 05:33:38;;;;;;;11.35;10.25;;;;;;;;;;5103578;28;20027;-75
2023/07/24 05:36:04;;;;;;;10.30;9.32;;;;;;;;;;5086932;28;20028;-72
2023/07/24 05:38:29;;;;;;;10.80;9.63;;;;;;;;;;5095377;28;20051;-73
2023/07/24 05:40:58;;;;;;;11.05;9.95;;;;;;;;;;5085859;28;20039;-73
2023/07/24 05:43:23;;;;;;;10.88;9.77;;;;;;;;;;5097783;28;20031;-73
2023/07/24 05:45:50;;;;;;;11.07;9.90;;;;;;;;;;5097388;28;20028;-75
2023/07/24 05:48:15;;;;;;;10.85;9.65;;;;;;;;;;5101660;28;20037;-74
2023/07/24 05:50:41;;;;;;;10.85;9.80;;;;;;;;;;5100634;28;20397;-71
2023/07/24 05:53:06;;;;;;;10.50;9.45;;;;;;;;;;5091739;28;20020;-71
2023/07/24 05:55:32;;;;;;;11.50;10.07;;;;;;;;;;5091864;28;20020;-73
2023/07/24 05:57:57;;;;;;;11.15;10.05;;;;;;;;;;5098471;28;20350;-73
2023/07/24 06:00:22;;;;;;;10.60;9.57;;;;;;;;;;5086661;28;20091;-73
2023/07/24 06:02:48;;;;;;;9.98;9.05;;;;;;;;;;5099442;28;20425;-73
2023/07/24 06:05:13;;;;;;;10.98;9.77;;;;;;;;;;5087298;27;20016;-73
2023/07/24 06:07:38;;;;;;;9.50;8.60;;;;;;;;;;5094468;28;20027;-74
2023/07/24 06:10:04;;;;;;;8.75;7.68;;;;;;;;;;5088246;28;20024;-73
2023/07/24 06:12:29;;;;;;;9.52;8.60;;;;;;;;;;5098539;28;20077;-72
2023/07/24 06:14:54;;;;;;;9.43;8.50;;;;;;;;;;5099771;28;20453;-72
2023/07/24 06:17:20;;;;;;;9.20;8.23;;;;;;;;;;5096142;27;20028;-71
2023/07/24 06:19:45;;;;;;;10.35;8.70;;;;;;;;;;5092992;28;20039;-72
2023/07/24 06:22:10;;;;;;;11.20;8.40;;;;;;;;;;5086906;28;20085;-72
2023/07/24 06:24:36;;;;;;;8.85;7.90;;;;;;;;;;5101971;27;20347;-72
2023/07/24 06:27:01;;;;;;;8.65;7.75;;;;;;;;;;5097607;28;20487;-74
2023/07/24 06:29:27;;;;;;;9.25;7.85;;;;;;;;;;5097963;28;20027;-72
2023/07/24 06:31:52;;;;;;;9.55;8.55;;;;;;;;;;5100055;28;20031;-72
2023/07/24 06:34:17;;;;;;;8.23;7.32;;;;;;;;;;5098128;28;20794;-73
2023/07/24 06:36:43;;;;;;;8.80;7.90;;;;;;;;;;5096133;28;20031;-74
2023/07/24 06:39:08;;;;;;;8.55;7.53;;;;;;;;;;5080910;28;20052;-75
2023/07/24 06:41:33;;;;;;;8.05;7.25;;;;;;;;;;5080346;28;20031;-75
2023/07/24 06:43:59;;;;;;;8.43;7.13;;;;;;;;;;5095165;28;20028;-74
2023/07/24 06:46:24;;;;;;;8.60;7.80;;;;;;;;;;5100899;28;20042;-74
2023/07/24 06:48:49;;;;;;;9.18;8.13;;;;;;;;;;5100879;28;20445;-74
2023/07/24 06:51:15;;;;;;;9.18;7.70;;;;;;;;;;5100861;28;20035;-74
2023/07/24 06:53:40;;;;;;;8.35;7.53;;;;;;;;;;5104096;28;20383;-74
2023/07/24 06:56:05;;;;;;;7.75;6.95;;;;;;;;;;5099984;28;20384;-74
2023/07/24 06:58:31;;;;;;;8.02;7.25;;;;;;;;;;5099267;28;20028;-75
2023/07/24 07:00:56;;;;;;;8.93;7.70;;;;;;;;;;5099108;28;20050;-72
2023/07/24 07:03:22;;;;;;;7.70;6.82;;;;;;;;;;5099373;27;20315;-73
2023/07/24 07:05:47;;;;;;;8.60;7.70;;;;;;;;;;5100821;28;20024;-74
2023/07/24 07:08:12;;;;;;;7.30;6.60;;;;;;;;;;5101378;28;20462;-73
2023/07/24 07:10:38;;;;;;;8.02;7.22;;;;;;;;;;5100239;28;20446;-72
2023/07/24 07:13:03;;;;;;;8.75;6.80;;;;;;;;;;5100763;28;20427;-70
2023/07/24 07:15:29;;;;;;;7.88;6.90;;;;;;;;;;5101700;28;20346;-73
2023/07/24 07:17:54;;;;;;;7.80;7.05;;;;;;;;;;5101170;28;20465;-74
2023/07/24 07:20:19;;;;;;;7.60;6.90;;;;;;;;;;5093873;28;20031;-73
2023/07/24 07:22:45;;;;;;;7.53;6.80;;;;;;;;;;5092334;28;20042;-73
2023/07/24 07:25:10;;;;;;;7.47;6.72;;;;;;;;;;5097499;28;20458;-75
2023/07/24 07:27:35;;;;;;;8.10;7.25;;;;;;;;;;5099831;28;20422;-73
2023/07/24 07:30:01;;;;;;;8.73;7.82;;;;;;;;;;5101409;28;20520;-75
2023/07/24 07:32:27;;;;;;;7.43;6.72;;;;;;;;;;5101065;28;20034;-73
2023/07/24 07:34:52;;;;;;;10.82;7.65;;;;;;;;;;5099102;28;20028;-73
2023/07/24 07:37:17;;;;;;;8.00;6.63;;;;;;;;;;5094157;28;20122;-74
2023/07/24 07:39:43;;;;;;;7.85;7.10;;;;;;;;;;5079109;28;20074;-74
2023/07/24 07:42:08;;;;;;;7.82;7.03;;;;;;;;;;5077935;28;20047;-73
2023/07/24 07:44:33;;;;;;;7.90;7.20;;;;;;;;;;5087129;28;20019;-74
2023/07/24 07:46:59;;;;;;;7.93;7.22;;;;;;;;;;5100758;28;20031;-74
2023/07/24 07:49:24;;;;;;;8.43;7.63;;;;;;;;;;5098457;28;20386;-73
2023/07/24 07:51:49;;;;;;;8.57;7.55;;;;;;;;;;5100438;28;21172;-72
2023/07/24 07:54:15;;;;;;;8.57;7.15;;;;;;;;;;5097754;28;20031;-73
2023/07/24 07:56:41;;;;;;;8.07;7.32;;;;;;;;;;5099528;28;20385;-74
2023/07/24 07:59:06;;;;;;;8.45;7.55;;;;;;;;;;5096677;28;20039;-74
2023/07/24 08:01:32;;;;;;;8.10;7.30;;;;;;;;;;5098348;28;20072;-74
2023/07/24 08:03:57;;;;;;;6.97;6.25;;;;;;;;;;5098614;28;20475;-74
2023/07/24 08:06:24;;;;;;;8.68;7.60;;;;;;;;;;5094143;28;20066;-72
2023/07/24 08:08:49;;;;;;;9.95;7.50;;;;;;;;;;5087667;28;20031;-72
2023/07/24 08:11:14;;;;;;;8.00;7.20;;;;;;;;;;5100799;28;20043;-73
2023/07/24 08:13:40;;;;;;;8.43;7.63;;;;;;;;;;5098290;28;20028;-72
2023/07/24 08:16:17;;;;;;;9.32;7.50;;;;;;;;;;5090119;28;20027;-72
2023/07/24 08:18:42;;;;;;;8.30;7.50;;;;;;;;;;5090110;28;20034;-73
2023/07/24 08:21:07;;;;;;;9.50;8.40;;;;;;;;;;5081734;28;20024;-73
2023/07/24 08:23:33;;;;;;;10.57;9.18;;;;;;;;;;5083067;28;20044;-73
2023/07/24 08:25:59;;;;;;;11.20;9.25;;;;;;;;;;5086921;28;20035;-74
2023/07/24 08:28:24;;;;;;;13.23;10.18;;;;;;;;;;5098387;28;20038;-76
2023/07/24 08:30:57;;;;;;;11.35;10.02;;;;;;;;;;5095408;28;20498;-75
2023/07/24 08:33:22;;;;;;;11.23;9.32;;;;;;;;;;5086568;28;20028;-73
2023/07/24 08:35:47;;;;;;;10.38;9.38;;;;;;;;;;5097825;28;20035;-73
2023/07/24 08:38:13;;;;;;;10.15;9.05;;;;;;;;;;5096426;28;20061;-72
2023/07/24 08:40:39;;;;;;;10.98;9.60;;;;;;;;;;5082875;28;20135;-72
2023/07/24 08:43:04;;;;;;;10.40;9.30;;;;;;;;;;5080820;28;20020;-73
2023/07/24 08:45:30;;;;;;;11.00;9.13;;;;;;;;;;5082959;28;20416;-73
2023/07/24 08:47:56;;;;;;;10.82;9.68;;;;;;;;;;5092025;28;20024;-75
2023/07/24 08:50:22;;;;;;;12.20;9.38;;;;;;;;;;5089542;28;20346;-76
2023/07/24 08:52:47;;;;;;;11.07;9.98;;;;;;;;;;5097171;28;20032;-74
2023/07/24 08:55:13;;;;;;;10.52;9.48;;;;;;;;;;5089705;28;20400;-74
2023/07/24 08:57:38;;;;;;;11.23;9.88;;;;;;;;;;5081526;28;20032;-73
2023/07/24 09:00:05;;;;;;;12.70;10.13;;;;;;;;;;5084592;28;20031;-76
2023/07/24 09:02:34;;;;;;;12.32;9.45;;;;;;;;;;5084045;28;20335;-72
2023/07/24 09:04:59;;;;;;;14.52;9.75;;;;;;;;;;5078724;27;20044;-72
2023/07/24 09:07:25;;;;;;;10.20;9.27;;;;;;;;;;5085602;28;20043;-75
2023/07/24 09:09:50;;;;;;;10.48;9.40;;;;;;;;;;5079911;28;20070;-73
2023/07/24 09:12:16;;;;;;;11.10;9.88;;;;;;;;;;5083897;28;20032;-74
2023/07/24 09:14:41;;;;;;;14.45;11.15;;;;;;;;;;5084208;27;20142;-73
2023/07/24 09:17:10;;;;;;;11.77;10.52;;;;;;;;;;5088825;27;20041;-72
2023/07/24 09:19:36;;;;;;;11.32;10.23;;;;;;;;;;5101107;28;20449;-74
2023/07/24 09:22:08;;;;;;;11.20;9.25;;;;;;;;;;5083567;27;20027;-71
2023/07/24 09:24:33;;;;;;;11.85;10.27;;;;;;;;;;5098538;28;20505;-72
2023/07/24 09:26:58;;;;;;;11.48;10.27;;;;;;;;;;5098470;28;20031;-73
2023/07/24 09:29:29;;;;;;;10.82;9.77;;;;;;;;;;5101681;28;20057;-75
2023/07/24 09:31:55;;;;;;;13.35;10.10;;;;;;;;;;5098493;28;20027;-73
2023/07/24 09:34:20;;;;;;;11.65;10.45;;;;;;;;;;5102769;28;20407;-72
2023/07/24 09:36:46;;;;;;;11.73;9.90;;;;;;;;;;5100799;28;20339;-72
2023/07/24 09:39:11;;;;;;;10.73;9.35;;;;;;;;;;5101791;28;20136;-72
2023/07/24 09:41:38;;;;;;;12.82;11.45;;;;;;;;;;5097982;28;20582;-74
2023/07/24 09:44:03;;;;;;;14.48;11.82;;;;;;;;;;5100223;28;20023;-71
2023/07/24 09:46:29;;;;;;;13.73;12.32;;;;;;;;;;5103850;28;20092;-72
2023/07/24 09:48:56;;;;;;;17.90;12.27;;;;;;;;;;5101448;27;20035;-72
2023/07/24 09:51:22;;;;;;;13.88;12.20;;;;;;;;;;5099485;28;20032;-73
2023/07/24 09:54:14;;;;;;;14.48;12.60;;;;;;;;;;5101427;28;20438;-74
2023/07/24 09:56:40;;;;;;;13.07;11.75;;;;;;;;;;5017857;28;20048;-72
2023/07/24 09:59:06;;;;;;;13.40;11.88;;;;;;;;;;5017437;28;20052;-75
2023/07/24 10:01:31;;;;;;;16.33;13.07;;;;;;;;;;5018166;28;20029;-73
2023/07/24 10:03:58;;;;;;;15.75;12.85;;;;;;;;;;5017880;28;20212;-73
2023/07/24 10:06:24;;;;;;;14.88;12.85;;;;;;;;;;5015677;28;20116;-73
2023/07/24 10:08:51;;;;;;;15.13;13.32;;;;;;;;;;5017722;28;20045;-72
2023/07/24 10:11:16;;;;;;;15.27;13.77;;;;;;;;;;5018510;28;20052;-74
2023/07/24 10:13:42;;;;;;;13.80;12.00;;;;;;;;;;5017763;28;20634;-72
2023/07/24 10:16:08;;;;;;;15.32;13.13;;;;;;;;;;5016831;28;20101;-74
2023/07/24 10:18:34;;;;;;;16.75;12.38;;;;;;;;;;5015003;28;20033;-72
2023/07/24 10:21:04;;;;;;;14.88;12.90;;;;;;;;;;5016835;28;20103;-72
2023/07/24 10:23:29;;;;;;;14.23;12.52;;;;;;;;;;5019116;28;20044;-72
2023/07/24 10:25:55;;;;;;;13.88;12.43;;;;;;;;;;5016169;28;20030;-72
2023/07/24 10:28:29;;;;;;;15.43;13.82;;;;;;;;;;5016396;28;20058;-71
2023/07/24 10:30:56;;;;;;;13.90;12.48;;;;;;;;;;5015785;28;20037;-74
2023/07/24 10:33:22;;;;;;;15.05;13.52;;;;;;;;;;5055951;28;20027;-71
2023/07/24 10:35:50;;;;;;;15.50;13.82;;;;;;;;;;5099369;28;20038;-75
2023/07/24 10:38:16;;;;;;;;;;;;;;;;;;5098939;28;20597;-73
2023/07/24 10:40:42;;;;;;;16.47;11.87;;;;;;;;;;5098364;28;19911;-72
2023/07/24 10:43:09;;;;;;;14.90;12.75;;;;;;;;;;5100520;28;20023;-75
2023/07/24 10:45:40;;;;;;;17.20;13.10;;;;;;;;;;5102154;28;20136;-72
2023/07/24 10:48:06;;;;;;;15.68;12.63;;;;;;;;;;5101568;28;20075;-73
2023/07/24 10:50:38;;;;;;;14.45;13.00;;;;;;;;;;5098655;28;20442;-73
2023/07/24 10:53:03;;;;;;;15.02;12.52;;;;;;;;;;5099081;28;20019;-73
2023/07/24 10:55:28;;;;;;;14.95;13.45;;;;;;;;;;5102117;27;20020;-73
2023/07/24 10:57:53;;;;;;;15.02;13.52;;;;;;;;;;5097390;28;20043;-72
2023/07/24 11:00:19;;;;;;;14.60;13.20;;;;;;;;;;5098545;28;20019;-74
2023/07/24 11:02:44;;;;;;;16.42;13.90;;;;;;;;;;5098972;28;20023;-74
2023/07/24 11:05:09;;;;;;;15.80;14.13;;;;;;;;;;5100781;28;20070;-73
2023/07/24 11:07:35;;;;;;;16.20;12.90;;;;;;;;;;5097374;28;20027;-74
2023/07/24 11:10:00;;;;;;;15.23;13.18;;;;;;;;;;5099976;28;20027;-74
2023/07/24 11:12:30;;;;;;;16.95;13.52;;;;;;;;;;5099723;28;20036;-73
2023/07/24 11:14:56;;;;;;;16.58;14.45;;;;;;;;;;5098167;28;20084;-75
2023/07/24 11:17:21;;;;;;;14.23;12.60;;;;;;;;;;5100846;28;20106;-73
2023/07/24 11:19:47;;;;;;;15.60;13.90;;;;;;;;;;5100689;28;20110;-72
2023/07/24 11:22:12;;;;;;;16.15;14.40;;;;;;;;;;5098456;28;20327;-74
2023/07/24 11:24:42;;;;;;;14.48;12.80;;;;;;;;;;5100216;28;20787;-72
2023/07/24 11:27:14;;;;;;;15.18;13.27;;;;;;;;;;5099212;28;20100;-72
2023/07/24 11:29:40;;;;;;;19.13;13.82;;;;;;;;;;5100244;28;20043;-74
2023/07/24 11:32:06;;;;;;;15.90;14.30;;;;;;;;;;5098116;28;20073;-72
2023/07/24 11:34:31;;;;;;;15.48;13.88;;;;;;;;;;5102693;28;20023;-74
2023/07/24 11:36:57;;;;;;;15.38;13.50;;;;;;;;;;5096178;28;20039;-74
2023/07/24 11:39:22;;;;;;;17.20;15.50;;;;;;;;;;5102121;28;20056;-75
2023/07/24 11:41:48;;;;;;;17.00;14.07;;;;;;;;;;5098797;28;20028;-73
2023/07/24 11:44:16;;;;;;;17.80;15.20;;;;;;;;;;5100874;28;21071;-73
2023/07/24 11:46:42;;;;;;;19.30;17.30;;;;;;;;;;5101525;28;20027;-76
2023/07/24 11:49:07;;;;;;;18.63;16.65;;;;;;;;;;5100094;28;20038;-72
2023/07/24 11:51:33;;;;;;;17.27;14.35;;;;;;;;;;5099286;28;20028;-76
2023/07/24 11:54:09;;;;;;;18.15;15.98;;;;;;;;;;5096410;28;20170;-72
2023/07/24 11:56:34;;;;;;;17.90;15.88;;;;;;;;;;5098629;28;20039;-75
2023/07/24 11:59:09;;;;;;;17.02;15.18;;;;;;;;;;5100414;27;20032;-74
2023/07/24 12:01:35;;;;;;;17.27;15.45;;;;;;;;;;5080198;27;20061;-75
2023/07/24 12:04:00;;;;;;;15.95;14.25;;;;;;;;;;5087653;27;20027;-75
2023/07/24 12:06:26;;;;;;;16.77;15.18;;;;;;;;;;5082302;28;20447;-72
2023/07/24 12:08:51;;;;;;;16.83;15.13;;;;;;;;;;5086144;28;20035;-72
2023/07/24 12:11:20;;;;;;;16.55;14.85;;;;;;;;;;5082416;28;20077;-72
2023/07/24 12:13:46;;;;;;;17.00;15.23;;;;;;;;;;5080777;28;20392;-73
2023/07/24 12:16:11;;;;;;;16.95;15.18;;;;;;;;;;5086459;28;20117;-71
2023/07/24 12:18:37;;;;;;;17.67;15.80;;;;;;;;;;5095700;28;20038;-73
2023/07/24 12:21:02;;;;;;;17.65;15.77;;;;;;;;;;5096307;28;20035;-72
2023/07/24 12:23:28;;;;;;;17.08;15.23;;;;;;;;;;5096545;28;20031;-74
2023/07/24 12:25:53;;;;;;;16.80;15.18;;;;;;;;;;5092731;28;20023;-72
2023/07/24 12:28:18;;;;;;;16.90;15.20;;;;;;;;;;5079610;28;20032;-75
2023/07/24 12:30:44;;;;;;;18.08;14.80;;;;;;;;;;5081868;28;20402;-71
2023/07/24 12:33:09;;;;;;;16.52;14.15;;;;;;;;;;5082941;28;20031;-73
2023/07/24 12:35:34;;;;;;;17.92;16.17;;;;;;;;;;5099874;28;20016;-75
2023/07/24 12:38:00;;;;;;;18.27;16.38;;;;;;;;;;5097302;28;20043;-74
2023/07/24 12:40:25;;;;;;;18.00;15.50;;;;;;;;;;5100803;28;20067;-73
2023/07/24 12:42:50;;;;;;;18.25;16.33;;;;;;;;;;5100816;28;20489;-75
2023/07/24 12:45:16;;;;;;;18.02;15.48;;;;;;;;;;5100237;28;20032;-74
2023/07/24 12:47:41;;;;;;;18.00;16.08;;;;;;;;;;5098149;28;20051;-74
2023/07/24 12:50:06;;;;;;;17.58;15.82;;;;;;;;;;5098183;28;20062;-74
2023/07/24 12:52:32;;;;;;;17.52;15.55;;;;;;;;;;5097534;28;20034;-74
2023/07/24 12:54:57;;;;;;;18.10;16.35;;;;;;;;;;5094965;28;20126;-78
2023/07/24 12:57:23;;;;;;;15.32;13.73;;;;;;;;;;5096166;28;20153;-75
2023/07/24 12:59:48;;;;;;;16.15;14.45;;;;;;;;;;5094482;28;20347;-75
2023/07/24 13:02:13;;;;;;;17.90;16.10;;;;;;;;;;5096135;28;20070;-76
2023/07/24 13:04:39;;;;;;;17.80;16.00;;;;;;;;;;5094725;28;20042;-73
2023/07/24 13:07:04;;;;;;;19.02;16.08;;;;;;;;;;5098547;28;20026;-75
2023/07/24 13:09:30;;;;;;;17.98;16.17;;;;;;;;;;5097257;28;20055;-75
2023/07/24 13:11:55;;;;;;;17.98;16.20;;;;;;;;;;5094590;28;20032;-76
2023/07/24 13:14:21;;;;;;;18.10;15.50;;;;;;;;;;5094027;28;20028;-76
2023/07/24 13:16:46;;;;;;;18.52;16.63;;;;;;;;;;5088216;28;20020;-78
2023/07/24 13:19:12;;;;;;;17.75;15.75;;;;;;;;;;5094076;28;20031;-75
2023/07/24 13:21:37;;;;;;;18.90;16.63;;;;;;;;;;5095668;28;20311;-77
2023/07/24 13:24:03;;;;;;;18.90;15.90;;;;;;;;;;5082357;28;20130;-77
2023/07/24 13:26:28;;;;;;;17.75;15.57;;;;;;;;;;5086727;28;20457;-76
2023/07/24 13:28:54;;;;;;;18.10;16.27;;;;;;;;;;5085962;28;20028;-76
2023/07/24 13:31:20;;;;;;;18.02;16.17;;;;;;;;;;5094443;28;20426;-75
2023/07/24 13:33:45;;;;;;;19.00;16.48;;;;;;;;;;5082516;28;20032;-75
2023/07/24 13:36:11;;;;;;;17.52;15.73;;;;;;;;;;5090027;28;20088;-76
2023/07/24 13:38:36;;;;;;;17.38;15.30;;;;;;;;;;5099582;28;20075;-75
2023/07/24 13:41:02;;;;;;;18.42;16.63;;;;;;;;;;5095286;28;20081;-75
2023/07/24 13:43:29;;;;;;;17.10;15.38;;;;;;;;;;5093812;28;20028;-76
2023/07/24 13:45:54;;;;;;;18.20;16.30;;;;;;;;;;5093916;28;20439;-74
2023/07/24 13:48:20;;;;;;;18.52;16.65;;;;;;;;;;5086549;28;20100;-74
2023/07/24 13:50:45;;;;;;;18.17;16.27;;;;;;;;;;5097550;28;20470;-75
2023/07/24 13:53:12;;;;;;;18.13;16.33;;;;;;;;;;5087412;27;20043;-75
2023/07/24 13:55:37;;;;;;;17.95;16.15;;;;;;;;;;5093948;27;20027;-78
2023/07/24 13:58:02;;;;;;;18.42;16.63;;;;;;;;;;5099244;28;20441;-78
2023/07/24 14:00:28;;;;;;;17.55;15.88;;;;;;;;;;5082307;28;20062;-74
2023/07/24 14:02:53;;;;;;;17.85;16.02;;;;;;;;;;5081790;27;20030;-75
2023/07/24 14:05:18;;;;;;;17.42;15.63;;;;;;;;;;5083878;28;20023;-74
2023/07/24 14:07:44;;;;;;;17.45;15.60;;;;;;;;;;5084221;28;20120;-75
2023/07/24 14:10:09;;;;;;;17.17;15.32;;;;;;;;;;5081712;28;20061;-74
2023/07/24 14:12:35;;;;;;;17.15;15.48;;;;;;;;;;5082178;28;20085;-74
2023/07/24 14:15:00;;;;;;;15.45;13.85;;;;;;;;;;5093207;28;20019;-75
2023/07/24 14:17:26;;;;;;;16.60;15.00;;;;;;;;;;5090689;28;20032;-74